Time;durP1;ratioP1;P1;durP2;ratioP2;P2;SDS_P1;SDS_P2;PMS_P1;PMS_P2;Temp;Humidity;BMP_temperature;BMP_pressure;BME280_temperature;BME280_humidity;BME280_pressure;Samples;Min_cycle;Max_cycle;Signal;HPM_P1;HPM_P2
2023/10/14 00:00:26;;;;;;;7.55;3.40;;;;;;;;;;2074089;28;20045;-52
2023/10/14 00:01:28;;;;;;;13.15;3.53;;;;;;;;;;2074364;28;20421;-53
2023/10/14 00:02:29;;;;;;;8.02;3.92;;;;;;;;;;2073989;28;20401;-53
2023/10/14 00:03:33;;;;;;;9.77;3.35;;;;;;;;;;2074091;28;20050;-53
2023/10/14 00:04:34;;;;;;;6.00;3.25;;;;;;;;;;2073452;28;20042;-53
2023/10/14 00:05:35;;;;;;;9.10;3.20;;;;;;;;;;2073997;28;20049;-53
2023/10/14 00:06:39;;;;;;;7.57;3.50;;;;;;;;;;2073364;28;20037;-52
2023/10/14 00:07:40;;;;;;;9.73;3.33;;;;;;;;;;2072980;28;20048;-53
2023/10/14 00:09:59;;;;;;;9.18;3.63;;;;;;;;;;2073928;28;20050;-53
2023/10/14 00:11:01;;;;;;;10.55;3.88;;;;;;;;;;2074087;28;20462;-54
2023/10/14 00:12:12;;;;;;;6.10;3.47;;;;;;;;;;2073701;28;20042;-53
2023/10/14 00:13:16;;;;;;;10.80;3.47;;;;;;;;;;2074022;28;20034;-53
2023/10/14 00:14:18;;;;;;;7.93;3.33;;;;;;;;;;2073972;28;20030;-53
2023/10/14 00:15:19;;;;;;;8.18;3.67;;;;;;;;;;2074001;28;20064;-53
2023/10/14 00:17:34;;;;;;;6.97;3.38;;;;;;;;;;2074400;28;20034;-52
2023/10/14 00:18:36;;;;;;;7.57;3.63;;;;;;;;;;2074191;28;20033;-53
2023/10/14 00:19:37;;;;;;;9.95;3.50;;;;;;;;;;2073846;28;20485;-53
2023/10/14 00:20:39;;;;;;;5.35;2.70;;;;;;;;;;2073900;28;20029;-53
2023/10/14 00:21:42;;;;;;;8.52;3.20;;;;;;;;;;2073550;28;20041;-53
2023/10/14 00:22:44;;;;;;;8.55;2.95;;;;;;;;;;2073151;28;20042;-53
2023/10/14 00:23:44;;;;;;;7.25;3.28;;;;;;;;;;2074022;28;20033;-53
2023/10/14 00:24:48;;;;;;;6.88;3.47;;;;;;;;;;2073725;28;20038;-53
2023/10/14 00:25:49;;;;;;;6.30;3.22;;;;;;;;;;2073632;28;20041;-53
2023/10/14 00:26:49;;;;;;;5.93;3.38;;;;;;;;;;2073580;28;20038;-53
2023/10/14 00:27:50;;;;;;;8.07;3.58;;;;;;;;;;2074106;28;20399;-53
2023/10/14 00:29:36;;;;;;;7.75;3.25;;;;;;;;;;2073501;28;20075;-52
2023/10/14 00:30:12;;;;;;;10.48;3.88;;;;;;;;;;2063354;28;20076;-53
2023/10/14 00:31:13;;;;;;;6.10;3.35;;;;;;;;;;2073551;28;20069;-52
2023/10/14 00:32:13;;;;;;;7.15;2.95;;;;;;;;;;2072680;28;20556;-52
2023/10/14 00:33:14;;;;;;;6.05;2.97;;;;;;;;;;2073270;28;20399;-53
2023/10/14 00:34:15;;;;;;;6.72;3.50;;;;;;;;;;2073928;28;20042;-52
2023/10/14 00:35:18;;;;;;;5.78;2.65;;;;;;;;;;2073815;28;20080;-52
2023/10/14 00:36:19;;;;;;;9.05;3.13;;;;;;;;;;2073671;28;20055;-53
2023/10/14 00:37:20;;;;;;;8.27;3.42;;;;;;;;;;2073801;28;20049;-53
2023/10/14 00:38:23;;;;;;;6.63;2.70;;;;;;;;;;2074012;28;20042;-53
2023/10/14 00:39:26;;;;;;;8.20;3.30;;;;;;;;;;2073241;28;20037;-53
2023/10/14 00:40:27;;;;;;;7.82;3.78;;;;;;;;;;2072707;28;20053;-53
2023/10/14 00:41:28;;;;;;;8.00;2.88;;;;;;;;;;2074125;28;20034;-53
2023/10/14 00:42:29;;;;;;;7.60;3.10;;;;;;;;;;2072520;28;20042;-52
2023/10/14 00:43:29;;;;;;;11.13;3.50;;;;;;;;;;2073215;28;20040;-53
2023/10/14 00:44:30;;;;;;;6.90;3.20;;;;;;;;;;2073192;28;20394;-52
2023/10/14 00:45:31;;;;;;;7.60;2.97;;;;;;;;;;2073168;28;20034;-53
2023/10/14 00:46:33;;;;;;;5.60;3.00;;;;;;;;;;2073260;28;20038;-53
2023/10/14 00:47:34;;;;;;;7.45;3.10;;;;;;;;;;2072968;28;20046;-53
2023/10/14 00:48:40;;;;;;;6.70;3.13;;;;;;;;;;2072840;28;20129;-53
2023/10/14 00:49:42;;;;;;;7.03;3.20;;;;;;;;;;2073426;28;20030;-53
2023/10/14 00:50:44;;;;;;;9.40;3.20;;;;;;;;;;2064772;28;20109;-53
2023/10/14 00:51:45;;;;;;;6.38;3.13;;;;;;;;;;2057405;28;20505;-53
2023/10/14 00:52:53;;;;;;;6.53;3.42;;;;;;;;;;2065484;28;20041;-53
2023/10/14 00:54:01;;;;;;;7.13;3.17;;;;;;;;;;2066090;28;20042;-53
2023/10/14 00:55:01;;;;;;;7.55;3.67;;;;;;;;;;2073489;28;20026;-53
2023/10/14 00:56:02;;;;;;;8.77;3.33;;;;;;;;;;2065879;28;20379;-53
2023/10/14 00:58:28;;;;;;;9.18;3.47;;;;;;;;;;2067129;28;20030;-53
2023/10/14 00:59:28;;;;;;;8.55;3.63;;;;;;;;;;2073056;28;20049;-53
2023/10/14 01:00:37;;;;;;;5.28;3.20;;;;;;;;;;2072248;28;20049;-52
2023/10/14 01:02:58;;;;;;;6.75;3.55;;;;;;;;;;2073739;28;20043;-52
2023/10/14 01:04:32;;;;;;;7.47;3.00;;;;;;;;;;2073375;28;20042;-53
2023/10/14 01:05:29;;;;;;;6.05;3.20;;;;;;;;;;2069791;28;20057;-53
2023/10/14 01:06:53;;;;;;;7.10;3.10;;;;;;;;;;2072590;28;20053;-53
2023/10/14 01:07:57;;;;;;;7.13;3.03;;;;;;;;;;2066702;28;20046;-53
2023/10/14 01:09:10;;;;;;;9.52;3.58;;;;;;;;;;2072466;28;20046;-53
2023/10/14 01:10:12;;;;;;;8.05;3.20;;;;;;;;;;2065990;28;20055;-53
2023/10/14 01:11:16;;;;;;;8.50;3.40;;;;;;;;;;2068883;28;20034;-52
2023/10/14 01:12:16;;;;;;;7.88;3.13;;;;;;;;;;2075328;28;20053;-53
2023/10/14 01:13:23;;;;;;;8.15;3.13;;;;;;;;;;2075361;28;20053;-53
2023/10/14 01:14:24;;;;;;;5.45;2.80;;;;;;;;;;2075069;28;20045;-53
2023/10/14 01:15:30;;;;;;;8.02;3.25;;;;;;;;;;2075237;28;20156;-53
2023/10/14 01:16:37;;;;;;;7.65;3.30;;;;;;;;;;2075362;28;20038;-52
2023/10/14 01:17:37;;;;;;;9.40;3.75;;;;;;;;;;2075450;28;20036;-53
2023/10/14 01:18:39;;;;;;;7.68;3.67;;;;;;;;;;2074937;28;20042;-53
2023/10/14 01:19:40;;;;;;;8.65;3.45;;;;;;;;;;2075377;28;20049;-53
2023/10/14 01:20:42;;;;;;;7.50;3.08;;;;;;;;;;2074787;28;20046;-53
2023/10/14 01:21:45;;;;;;;6.80;3.40;;;;;;;;;;2075074;28;20038;-53
2023/10/14 01:23:00;;;;;;;8.40;3.45;;;;;;;;;;2075297;28;20054;-53
2023/10/14 01:24:01;;;;;;;6.72;3.58;;;;;;;;;;2075289;28;20038;-53
2023/10/14 01:25:05;;;;;;;6.22;3.20;;;;;;;;;;2074087;28;20121;-53
2023/10/14 01:26:10;;;;;;;6.53;3.00;;;;;;;;;;2074422;28;20073;-53
2023/10/14 01:27:13;;;;;;;10.60;3.85;;;;;;;;;;2075267;28;20034;-53
2023/10/14 01:28:15;;;;;;;5.47;3.08;;;;;;;;;;2074651;28;20053;-53
2023/10/14 01:29:17;;;;;;;9.65;3.20;;;;;;;;;;2075343;28;20057;-52
2023/10/14 01:30:19;;;;;;;7.72;2.88;;;;;;;;;;2074854;28;20057;-52
2023/10/14 01:33:37;;;;;;;8.13;3.45;;;;;;;;;;2068640;28;20030;-53
2023/10/14 01:34:44;;;;;;;9.20;2.60;;;;;;;;;;2074652;28;20045;-53
2023/10/14 01:35:45;;;;;;;6.78;3.30;;;;;;;;;;2074062;28;20041;-53
2023/10/14 01:36:46;;;;;;;8.48;2.97;;;;;;;;;;2074469;28;20033;-53
2023/10/14 01:37:47;;;;;;;9.77;2.97;;;;;;;;;;2074256;28;20045;-53
2023/10/14 01:39:00;;;;;;;6.32;3.40;;;;;;;;;;2075133;28;20045;-53
2023/10/14 01:41:22;;;;;;;8.73;3.10;;;;;;;;;;2075518;28;20042;-52
2023/10/14 01:42:23;;;;;;;7.57;2.95;;;;;;;;;;2074448;28;20084;-53
2023/10/14 01:43:24;;;;;;;6.32;3.15;;;;;;;;;;2066122;28;20050;-53
2023/10/14 01:44:26;;;;;;;8.05;3.38;;;;;;;;;;2066527;28;20545;-53
2023/10/14 01:45:31;;;;;;;6.57;3.45;;;;;;;;;;2073794;28;20037;-52
2023/10/14 01:46:34;;;;;;;7.60;2.95;;;;;;;;;;2074776;28;20054;-52
2023/10/14 01:47:42;;;;;;;10.82;3.10;;;;;;;;;;2074465;28;20041;-53
2023/10/14 01:48:44;;;;;;;8.60;3.30;;;;;;;;;;2074900;28;20030;-53
2023/10/14 01:49:44;;;;;;;6.22;2.75;;;;;;;;;;2074650;28;20053;-53
2023/10/14 01:50:46;;;;;;;9.35;2.95;;;;;;;;;;2075066;28;20066;-53
2023/10/14 01:51:49;;;;;;;7.13;3.45;;;;;;;;;;2074481;28;20057;-53
2023/10/14 01:52:52;;;;;;;9.05;3.33;;;;;;;;;;2074081;28;20033;-53
2023/10/14 01:53:54;;;;;;;6.30;3.00;;;;;;;;;;2074469;28;20032;-53
2023/10/14 01:54:55;;;;;;;8.52;2.97;;;;;;;;;;2073616;28;20056;-53
2023/10/14 01:55:58;;;;;;;8.23;3.35;;;;;;;;;;2074519;28;20044;-53
2023/10/14 01:56:59;;;;;;;9.18;3.65;;;;;;;;;;2074635;28;20042;-52
2023/10/14 01:58:02;;;;;;;7.30;2.67;;;;;;;;;;2066278;28;20470;-53
2023/10/14 01:59:03;;;;;;;9.52;3.35;;;;;;;;;;2058649;28;20034;-53
2023/10/14 02:00:23;;;;;;;6.03;3.35;;;;;;;;;;2066557;28;20054;-53
2023/10/14 02:01:24;;;;;;;6.05;3.53;;;;;;;;;;2074851;28;20038;-53
2023/10/14 02:02:27;;;;;;;8.18;3.10;;;;;;;;;;2074304;28;20081;-53
2023/10/14 02:03:33;;;;;;;7.70;3.78;;;;;;;;;;2074348;28;20026;-53
2023/10/14 02:04:33;;;;;;;4.95;2.88;;;;;;;;;;2074971;28;20041;-53
2023/10/14 02:05:36;;;;;;;5.28;3.13;;;;;;;;;;2074935;28;20490;-53
2023/10/14 02:06:43;;;;;;;8.50;3.33;;;;;;;;;;2074586;28;20046;-53
2023/10/14 02:07:46;;;;;;;6.47;3.70;;;;;;;;;;2074459;28;20036;-53
2023/10/14 02:08:47;;;;;;;6.35;2.85;;;;;;;;;;2065915;28;20034;-53
2023/10/14 02:09:55;;;;;;;8.55;3.30;;;;;;;;;;2065608;28;20038;-53
2023/10/14 02:10:56;;;;;;;8.63;3.35;;;;;;;;;;2074560;28;20038;-53
2023/10/14 02:11:57;;;;;;;7.03;3.63;;;;;;;;;;2073977;28;20038;-53
2023/10/14 02:13:00;;;;;;;6.28;3.38;;;;;;;;;;2066294;28;20045;-53
2023/10/14 02:14:06;;;;;;;5.35;3.15;;;;;;;;;;2065872;28;20044;-53
2023/10/14 02:15:08;;;;;;;8.77;3.30;;;;;;;;;;2073704;28;20046;-53
2023/10/14 02:16:08;;;;;;;13.23;3.60;;;;;;;;;;2074519;28;20387;-53
2023/10/14 02:17:10;;;;;;;7.63;3.60;;;;;;;;;;2073880;28;20088;-53
2023/10/14 02:18:12;;;;;;;7.13;3.28;;;;;;;;;;2073738;28;20050;-53
2023/10/14 02:19:21;;;;;;;9.05;3.70;;;;;;;;;;2074515;28;20045;-53
2023/10/14 02:20:27;;;;;;;5.97;3.00;;;;;;;;;;2074935;28;20105;-53
2023/10/14 02:21:33;;;;;;;7.10;3.47;;;;;;;;;;2075018;28;20041;-53
2023/10/14 02:22:38;;;;;;;5.65;2.80;;;;;;;;;;2075132;28;20046;-52
2023/10/14 02:23:45;;;;;;;8.40;3.55;;;;;;;;;;2074484;28;20394;-53
2023/10/14 02:24:46;;;;;;;8.55;3.78;;;;;;;;;;2075062;28;20060;-53
2023/10/14 02:25:55;;;;;;;5.43;3.28;;;;;;;;;;2075345;28;20045;-53
2023/10/14 02:26:57;;;;;;;9.10;3.80;;;;;;;;;;2075053;28;20030;-53
2023/10/14 02:27:58;;;;;;;7.97;3.75;;;;;;;;;;2074723;28;20038;-53
2023/10/14 02:28:59;;;;;;;9.73;3.80;;;;;;;;;;2073642;28;20474;-53
2023/10/14 02:30:00;;;;;;;10.55;3.85;;;;;;;;;;2074026;28;20045;-53
2023/10/14 02:31:02;;;;;;;8.00;3.55;;;;;;;;;;2075022;28;20487;-53
2023/10/14 02:32:05;;;;;;;4.93;3.22;;;;;;;;;;2074657;28;20053;-53
2023/10/14 02:33:07;;;;;;;12.43;3.55;;;;;;;;;;2074962;28;20041;-53
2023/10/14 02:34:07;;;;;;;7.60;3.25;;;;;;;;;;2074104;28;20065;-53
2023/10/14 02:35:08;;;;;;;6.55;2.85;;;;;;;;;;2074108;28;20065;-53
2023/10/14 02:36:14;;;;;;;5.15;2.22;;;;;;;;;;2074223;28;20077;-53
2023/10/14 02:37:15;;;;;;;8.70;3.72;;;;;;;;;;2074964;28;20038;-53
2023/10/14 02:38:17;;;;;;;7.00;3.40;;;;;;;;;;2074571;28;20050;-53
2023/10/14 02:39:25;;;;;;;8.32;3.88;;;;;;;;;;2074349;28;20053;-53
2023/10/14 02:40:26;;;;;;;7.93;3.70;;;;;;;;;;2073507;28;20054;-53
2023/10/14 02:41:31;;;;;;;8.40;3.75;;;;;;;;;;2073390;28;20048;-52
2023/10/14 02:42:32;;;;;;;10.75;3.92;;;;;;;;;;2074858;28;20041;-53
2023/10/14 02:43:36;;;;;;;9.38;3.40;;;;;;;;;;2073429;28;20045;-53
2023/10/14 02:46:11;;;;;;;7.07;3.17;;;;;;;;;;2056870;28;20061;-53
2023/10/14 02:47:12;;;;;;;8.73;4.00;;;;;;;;;;2066429;28;20039;-53
2023/10/14 02:48:18;;;;;;;8.73;4.32;;;;;;;;;;2073519;28;20046;-52
2023/10/14 02:49:23;;;;;;;8.88;3.60;;;;;;;;;;2074060;28;20069;-53
2023/10/14 02:50:25;;;;;;;9.48;3.72;;;;;;;;;;2073990;28;20049;-53
2023/10/14 02:51:36;;;;;;;5.43;3.58;;;;;;;;;;2074512;28;20053;-53
2023/10/14 02:52:40;;;;;;;7.90;3.53;;;;;;;;;;2074015;28;20041;-53
2023/10/14 02:53:42;;;;;;;7.50;2.88;;;;;;;;;;2074020;28;20441;-53
2023/10/14 02:54:44;;;;;;;8.27;3.20;;;;;;;;;;2073817;28;20482;-53
2023/10/14 02:55:51;;;;;;;7.00;4.00;;;;;;;;;;2073153;28;20110;-53
2023/10/14 02:57:55;;;;;;;8.55;3.47;;;;;;;;;;2073852;28;20422;-53
2023/10/14 02:58:57;;;;;;;6.07;3.50;;;;;;;;;;2065988;28;20042;-53
2023/10/14 02:59:57;;;;;;;11.80;4.18;;;;;;;;;;2065907;28;20038;-53
2023/10/14 03:00:59;;;;;;;10.60;4.28;;;;;;;;;;2073126;28;20517;-53
2023/10/14 03:02:15;;;;;;;5.60;2.63;;;;;;;;;;2074198;28;20042;-53
2023/10/14 03:03:18;;;;;;;7.45;3.97;;;;;;;;;;2073443;28;20100;-53
2023/10/14 03:04:23;;;;;;;4.68;2.90;;;;;;;;;;2073327;28;20042;-53
2023/10/14 03:05:33;;;;;;;7.60;3.25;;;;;;;;;;2074043;28;20049;-53
2023/10/14 03:06:46;;;;;;;5.90;3.53;;;;;;;;;;2074129;28;20030;-53
2023/10/14 03:07:56;;;;;;;7.07;3.95;;;;;;;;;;2073591;28;20056;-53
2023/10/14 03:08:59;;;;;;;7.88;3.47;;;;;;;;;;2073888;28;20034;-53
2023/10/14 03:11:26;;;;;;;8.48;3.38;;;;;;;;;;2074372;28;20045;-53
2023/10/14 03:12:27;;;;;;;9.00;4.38;;;;;;;;;;2074803;28;20120;-53
2023/10/14 03:13:32;;;;;;;7.38;3.63;;;;;;;;;;2074283;28;20061;-53
2023/10/14 03:14:40;;;;;;;8.57;4.05;;;;;;;;;;2073009;28;20050;-53
2023/10/14 03:16:00;;;;;;;8.10;3.65;;;;;;;;;;2066503;28;20483;-53
2023/10/14 03:17:01;;;;;;;7.53;4.00;;;;;;;;;;2067969;28;20049;-53
2023/10/14 03:18:02;;;;;;;7.47;3.72;;;;;;;;;;2073113;28;20041;-53
2023/10/14 03:19:03;;;;;;;7.13;4.03;;;;;;;;;;2074433;28;20116;-53
2023/10/14 03:21:31;;;;;;;7.45;2.90;;;;;;;;;;2074191;28;20046;-53
2023/10/14 03:22:33;;;;;;;6.75;3.38;;;;;;;;;;2074381;28;20401;-53
2023/10/14 03:23:34;;;;;;;8.07;3.58;;;;;;;;;;2074335;28;20034;-53
2023/10/14 03:24:38;;;;;;;8.27;3.90;;;;;;;;;;2073398;28;20528;-53
2023/10/14 03:25:39;;;;;;;9.30;3.85;;;;;;;;;;2065922;28;20034;-53
2023/10/14 03:26:40;;;;;;;5.45;3.65;;;;;;;;;;2073976;28;20034;-52
2023/10/14 03:27:40;;;;;;;5.63;3.60;;;;;;;;;;2074342;28;20040;-53
2023/10/14 03:28:44;;;;;;;7.20;3.05;;;;;;;;;;2074472;28;20038;-53
2023/10/14 03:29:54;;;;;;;6.35;3.55;;;;;;;;;;2073763;28;20406;-54
2023/10/14 03:30:55;;;;;;;8.65;3.70;;;;;;;;;;2074788;28;20041;-53
2023/10/14 03:31:56;;;;;;;9.00;3.70;;;;;;;;;;2074077;28;20126;-53
2023/10/14 03:32:57;;;;;;;8.32;3.33;;;;;;;;;;2073544;28;20042;-53
2023/10/14 03:33:58;;;;;;;8.00;3.88;;;;;;;;;;2074574;28;20048;-52
2023/10/14 03:35:06;;;;;;;7.72;3.63;;;;;;;;;;2074338;28;20033;-53
2023/10/14 03:36:07;;;;;;;6.18;3.33;;;;;;;;;;2074121;28;20049;-53
2023/10/14 03:37:25;;;;;;;5.35;2.88;;;;;;;;;;2074451;28;20406;-53
2023/10/14 03:38:33;;;;;;;10.85;3.67;;;;;;;;;;2074349;28;20529;-53
2023/10/14 03:39:51;;;;;;;7.10;3.60;;;;;;;;;;2074360;28;20046;-53
2023/10/14 03:41:02;;;;;;;6.10;2.72;;;;;;;;;;2074463;28;20056;-53
2023/10/14 03:42:10;;;;;;;7.82;3.38;;;;;;;;;;2074346;28;20053;-52
2023/10/14 03:43:14;;;;;;;10.70;3.58;;;;;;;;;;2074498;28;20054;-53
2023/10/14 03:44:15;;;;;;;5.78;2.67;;;;;;;;;;2073845;28;20046;-53
2023/10/14 03:45:21;;;;;;;8.13;3.55;;;;;;;;;;2073795;28;20050;-53
2023/10/14 03:47:34;;;;;;;5.13;3.55;;;;;;;;;;2074248;28;20390;-53
2023/10/14 03:48:45;;;;;;;5.70;3.35;;;;;;;;;;2073814;28;20409;-53
2023/10/14 03:49:55;;;;;;;6.50;3.85;;;;;;;;;;2074417;28;20034;-53
2023/10/14 03:51:02;;;;;;;9.70;3.53;;;;;;;;;;2074033;28;20061;-52
2023/10/14 03:52:03;;;;;;;8.40;3.60;;;;;;;;;;2074247;28;20434;-53
2023/10/14 03:53:05;;;;;;;6.18;3.47;;;;;;;;;;2074035;28;20042;-53
2023/10/14 03:54:09;;;;;;;7.80;3.17;;;;;;;;;;2074059;28;20038;-53
2023/10/14 03:55:12;;;;;;;9.75;4.28;;;;;;;;;;2074267;28;20489;-53
2023/10/14 03:56:13;;;;;;;9.77;4.20;;;;;;;;;;2074156;28;20042;-53
2023/10/14 03:57:19;;;;;;;8.65;4.20;;;;;;;;;;2074004;28;20050;-53
2023/10/14 03:58:20;;;;;;;10.73;4.32;;;;;;;;;;2074195;28;20034;-53
2023/10/14 03:59:22;;;;;;;5.93;3.25;;;;;;;;;;2074225;28;20041;-53
2023/10/14 04:00:36;;;;;;;7.07;3.85;;;;;;;;;;2074121;28;20118;-53
2023/10/14 04:02:43;;;;;;;5.05;2.75;;;;;;;;;;2074134;28;20359;-53
2023/10/14 04:03:50;;;;;;;10.18;4.20;;;;;;;;;;2074346;28;20045;-53
2023/10/14 04:04:58;;;;;;;5.78;3.50;;;;;;;;;;2073845;28;20049;-53
2023/10/14 04:06:00;;;;;;;8.50;3.53;;;;;;;;;;2074173;28;20398;-53
2023/10/14 04:08:05;;;;;;;8.35;4.05;;;;;;;;;;2074067;28;20088;-53
2023/10/14 04:09:10;;;;;;;6.40;3.22;;;;;;;;;;2073714;28;20053;-53
2023/10/14 04:10:11;;;;;;;8.75;4.15;;;;;;;;;;2074315;28;20037;-53
2023/10/14 04:11:13;;;;;;;7.78;3.67;;;;;;;;;;2073906;28;20061;-53
2023/10/14 04:12:29;;;;;;;8.00;4.00;;;;;;;;;;2073994;28;20041;-53
2023/10/14 04:13:34;;;;;;;7.85;4.15;;;;;;;;;;2074182;28;20397;-53
2023/10/14 04:14:37;;;;;;;7.03;3.70;;;;;;;;;;2073979;28;20040;-53
2023/10/14 04:15:47;;;;;;;8.60;3.47;;;;;;;;;;2073640;28;20042;-54
2023/10/14 04:17:09;;;;;;;7.55;3.72;;;;;;;;;;2074482;28;20030;-53
2023/10/14 04:18:12;;;;;;;8.23;4.30;;;;;;;;;;2073825;28;20052;-53
2023/10/14 04:20:22;;;;;;;8.30;3.67;;;;;;;;;;2073663;28;20051;-52
2023/10/14 04:21:25;;;;;;;8.02;3.58;;;;;;;;;;2073830;28;20049;-52
2023/10/14 04:22:41;;;;;;;5.85;3.67;;;;;;;;;;2074213;28;20052;-52
2023/10/14 04:24:29;;;;;;;6.47;3.78;;;;;;;;;;2073996;28;20045;-52
2023/10/14 04:26:12;;;;;;;7.13;3.83;;;;;;;;;;2073909;28;20042;-53
2023/10/14 04:27:32;;;;;;;6.13;3.78;;;;;;;;;;2073994;28;20088;-52
2023/10/14 04:28:39;;;;;;;7.50;3.58;;;;;;;;;;2074105;28;20053;-52
2023/10/14 04:29:39;;;;;;;6.65;3.85;;;;;;;;;;2073551;28;20046;-53
2023/10/14 04:30:44;;;;;;;9.65;4.10;;;;;;;;;;2073587;28;20049;-53
2023/10/14 04:31:55;;;;;;;7.15;3.13;;;;;;;;;;2073980;28;20405;-53
2023/10/14 04:33:56;;;;;;;6.38;3.20;;;;;;;;;;2073802;28;20046;-53
2023/10/14 04:35:02;;;;;;;4.88;2.83;;;;;;;;;;2073815;28;20058;-53
2023/10/14 04:37:20;;;;;;;10.18;4.25;;;;;;;;;;2073507;28;20050;-53
2023/10/14 04:38:27;;;;;;;7.30;2.67;;;;;;;;;;2074042;28;20045;-53
2023/10/14 04:39:33;;;;;;;7.32;3.33;;;;;;;;;;2073196;28;20033;-52
2023/10/14 04:41:36;;;;;;;6.68;3.95;;;;;;;;;;2073552;28;20389;-53
2023/10/14 04:42:42;;;;;;;7.07;3.65;;;;;;;;;;2073726;28;20394;-53
2023/10/14 04:44:58;;;;;;;6.40;3.53;;;;;;;;;;2073694;28;20469;-53
2023/10/14 04:46:13;;;;;;;9.40;3.85;;;;;;;;;;2073428;28;20045;-53
2023/10/14 04:47:25;;;;;;;8.20;3.70;;;;;;;;;;2073873;28;20053;-53
2023/10/14 04:48:35;;;;;;;5.18;2.97;;;;;;;;;;2073398;28;20037;-53
2023/10/14 04:49:37;;;;;;;7.50;3.55;;;;;;;;;;2073709;28;20033;-53
2023/10/14 04:50:38;;;;;;;9.13;4.03;;;;;;;;;;2073098;28;20054;-53
2023/10/14 04:51:48;;;;;;;4.78;3.42;;;;;;;;;;2073398;28;20399;-53
2023/10/14 04:52:49;;;;;;;5.78;3.40;;;;;;;;;;2073168;28;20041;-53
2023/10/14 04:53:52;;;;;;;7.03;4.28;;;;;;;;;;2074045;28;20034;-53
2023/10/14 04:54:54;;;;;;;5.97;4.32;;;;;;;;;;2073927;28;20037;-53
2023/10/14 04:55:55;;;;;;;9.85;4.03;;;;;;;;;;2073565;28;20037;-53
2023/10/14 04:56:57;;;;;;;7.68;3.88;;;;;;;;;;2073901;28;20071;-53
2023/10/14 04:59:12;;;;;;;5.90;3.55;;;;;;;;;;2073854;28;20038;-53
2023/10/14 05:00:19;;;;;;;6.93;3.55;;;;;;;;;;2074035;28;20046;-53
2023/10/14 05:01:24;;;;;;;7.47;3.00;;;;;;;;;;2073254;28;20495;-53
2023/10/14 05:02:30;;;;;;;6.35;4.05;;;;;;;;;;2074073;28;20046;-53
2023/10/14 05:03:31;;;;;;;7.13;3.78;;;;;;;;;;2073713;28;20057;-53
2023/10/14 05:04:37;;;;;;;5.75;3.88;;;;;;;;;;2073775;28;20089;-53
2023/10/14 05:05:49;;;;;;;5.45;2.65;;;;;;;;;;2073893;28;20037;-52
2023/10/14 05:06:52;;;;;;;4.22;2.58;;;;;;;;;;2073604;28;20038;-53
2023/10/14 05:07:58;;;;;;;6.13;3.78;;;;;;;;;;2073485;28;20042;-53
2023/10/14 05:09:00;;;;;;;6.63;3.42;;;;;;;;;;2073496;28;20057;-53
2023/10/14 05:10:08;;;;;;;8.18;3.88;;;;;;;;;;2073710;28;20481;-53
2023/10/14 05:11:12;;;;;;;8.10;3.58;;;;;;;;;;2073241;28;20402;-53
2023/10/14 05:12:18;;;;;;;8.23;4.82;;;;;;;;;;2073248;28;20046;-53
2023/10/14 05:13:33;;;;;;;8.85;4.75;;;;;;;;;;2074088;28;20038;-53
2023/10/14 05:14:36;;;;;;;7.85;4.13;;;;;;;;;;2073890;28;20402;-53
2023/10/14 05:15:41;;;;;;;7.30;4.05;;;;;;;;;;2072931;28;20057;-52
2023/10/14 05:17:03;;;;;;;11.45;4.55;;;;;;;;;;2073784;28;20049;-53
2023/10/14 05:18:03;;;;;;;6.90;4.28;;;;;;;;;;2073880;28;20034;-52
2023/10/14 05:19:11;;;;;;;7.82;3.95;;;;;;;;;;2073944;28;20042;-53
2023/10/14 05:20:54;;;;;;;7.47;4.13;;;;;;;;;;2073275;28;20398;-52
2023/10/14 05:21:44;;;;;;;7.35;3.70;;;;;;;;;;2070837;28;20042;-52
2023/10/14 05:22:47;;;;;;;8.00;3.55;;;;;;;;;;2073890;28;20033;-53
2023/10/14 05:23:47;;;;;;;6.68;4.18;;;;;;;;;;2073416;28;20474;-53
2023/10/14 05:24:48;;;;;;;6.28;3.25;;;;;;;;;;2073787;28;20121;-53
2023/10/14 05:25:53;;;;;;;18.88;3.28;;;;;;;;;;2073105;28;20038;-52
2023/10/14 05:27:00;;;;;;;9.73;4.78;;;;;;;;;;2073530;28;20041;-52
2023/10/14 05:28:06;;;;;;;7.45;3.70;;;;;;;;;;2073924;28;20034;-53
2023/10/14 05:29:19;;;;;;;8.23;3.35;;;;;;;;;;2073904;28;20045;-53
2023/10/14 05:30:21;;;;;;;6.95;4.43;;;;;;;;;;2073583;28;20042;-53
2023/10/14 05:31:23;;;;;;;7.40;4.25;;;;;;;;;;2073657;28;20054;-53
2023/10/14 05:32:24;;;;;;;6.38;3.10;;;;;;;;;;2073674;28;20042;-53
2023/10/14 05:33:24;;;;;;;7.10;3.70;;;;;;;;;;2072203;28;20049;-53
2023/10/14 05:34:25;;;;;;;12.65;4.30;;;;;;;;;;2073029;28;20056;-53
2023/10/14 05:35:28;;;;;;;11.48;4.43;;;;;;;;;;2073043;28;20049;-53
2023/10/14 05:36:29;;;;;;;4.72;2.95;;;;;;;;;;2073683;28;20034;-53
2023/10/14 05:37:31;;;;;;;7.38;3.70;;;;;;;;;;2073727;28;20038;-53
2023/10/14 05:38:31;;;;;;;7.95;3.33;;;;;;;;;;2073546;28;20045;-53
2023/10/14 05:39:37;;;;;;;8.23;3.55;;;;;;;;;;2073607;28;20083;-53
2023/10/14 05:40:41;;;;;;;7.55;3.70;;;;;;;;;;2073663;28;20454;-54
2023/10/14 05:41:43;;;;;;;7.53;3.17;;;;;;;;;;2073218;28;20383;-53
2023/10/14 05:42:45;;;;;;;8.18;3.70;;;;;;;;;;2073959;28;20026;-54
2023/10/14 05:43:46;;;;;;;10.32;4.40;;;;;;;;;;2073587;28;20038;-54
2023/10/14 05:44:49;;;;;;;7.60;3.60;;;;;;;;;;2073354;28;20046;-53
2023/10/14 05:45:53;;;;;;;6.40;3.85;;;;;;;;;;2072919;28;20049;-54
2023/10/14 05:46:54;;;;;;;8.43;3.08;;;;;;;;;;2072942;28;20499;-54
2023/10/14 05:47:55;;;;;;;9.32;4.07;;;;;;;;;;2073676;28;20458;-54
2023/10/14 05:48:56;;;;;;;8.82;4.05;;;;;;;;;;2073669;28;20045;-56
2023/10/14 05:49:56;;;;;;;8.38;3.25;;;;;;;;;;2073727;28;20045;-54
2023/10/14 05:50:57;;;;;;;8.27;4.30;;;;;;;;;;2073307;28;20053;-55
2023/10/14 05:51:58;;;;;;;4.40;3.45;;;;;;;;;;2073266;28;20469;-57
2023/10/14 05:52:59;;;;;;;5.90;3.55;;;;;;;;;;2073680;28;20394;-56
2023/10/14 05:54:00;;;;;;;11.88;4.95;;;;;;;;;;2073765;28;20061;-55
2023/10/14 05:55:05;;;;;;;7.95;3.92;;;;;;;;;;2073458;28;20086;-56
2023/10/14 05:56:14;;;;;;;7.05;3.85;;;;;;;;;;2074228;28;20050;-57
2023/10/14 05:57:18;;;;;;;7.15;3.55;;;;;;;;;;2074578;28;20049;-56
2023/10/14 05:58:18;;;;;;;8.88;3.67;;;;;;;;;;2075182;28;20056;-57
2023/10/14 05:59:19;;;;;;;7.82;3.72;;;;;;;;;;2075626;28;20459;-56
2023/10/14 06:00:23;;;;;;;12.38;3.97;;;;;;;;;;2074700;28;20050;-58
2023/10/14 06:01:24;;;;;;;7.97;4.15;;;;;;;;;;2075045;28;20141;-57
2023/10/14 06:02:25;;;;;;;10.32;3.65;;;;;;;;;;2074964;28;20117;-57
2023/10/14 06:03:26;;;;;;;6.63;3.42;;;;;;;;;;2074938;28;20492;-57
2023/10/14 06:04:26;;;;;;;9.68;3.22;;;;;;;;;;2074743;28;20057;-57
2023/10/14 06:05:29;;;;;;;9.75;3.85;;;;;;;;;;2075135;28;20050;-57
2023/10/14 06:06:31;;;;;;;8.90;4.20;;;;;;;;;;2075034;28;20037;-56
2023/10/14 06:07:34;;;;;;;7.03;3.60;;;;;;;;;;2075110;28;20390;-57
2023/10/14 06:08:35;;;;;;;7.32;3.05;;;;;;;;;;2074540;28;20057;-56
2023/10/14 06:09:36;;;;;;;6.38;3.75;;;;;;;;;;2074497;28;20038;-56
2023/10/14 06:10:36;;;;;;;8.13;4.22;;;;;;;;;;2074788;28;20038;-56
2023/10/14 06:11:37;;;;;;;7.25;3.33;;;;;;;;;;2075064;28;20038;-56
2023/10/14 06:12:39;;;;;;;6.70;3.08;;;;;;;;;;2074842;28;20398;-57
2023/10/14 06:13:40;;;;;;;6.25;3.80;;;;;;;;;;2074987;28;20056;-57
2023/10/14 06:14:41;;;;;;;9.35;4.22;;;;;;;;;;2074824;28;20034;-56
2023/10/14 06:15:42;;;;;;;6.95;3.65;;;;;;;;;;2074110;28;20042;-59
2023/10/14 06:16:42;;;;;;;12.48;3.72;;;;;;;;;;2074642;28;20045;-58
2023/10/14 06:17:47;;;;;;;5.78;3.05;;;;;;;;;;2075203;28;20033;-58
2023/10/14 06:18:50;;;;;;;8.55;4.07;;;;;;;;;;2074338;28;20045;-55
2023/10/14 06:19:53;;;;;;;9.25;4.72;;;;;;;;;;2074873;28;20041;-56
2023/10/14 06:20:54;;;;;;;8.82;3.35;;;;;;;;;;2075034;28;20410;-56
2023/10/14 06:21:56;;;;;;;8.45;3.53;;;;;;;;;;2074818;28;20042;-57
2023/10/14 06:22:59;;;;;;;8.75;4.57;;;;;;;;;;2074925;28;20406;-59
2023/10/14 06:24:00;;;;;;;9.45;3.80;;;;;;;;;;2074491;28;20089;-58
2023/10/14 06:25:01;;;;;;;11.52;4.25;;;;;;;;;;2074488;28;20056;-56
2023/10/14 06:26:05;;;;;;;7.90;4.07;;;;;;;;;;2074805;28;20057;-57
2023/10/14 06:27:09;;;;;;;9.02;4.45;;;;;;;;;;2074897;28;20042;-57
2023/10/14 06:28:10;;;;;;;9.35;3.83;;;;;;;;;;2075020;28;20041;-58
2023/10/14 06:29:13;;;;;;;5.28;3.20;;;;;;;;;;2074769;28;20041;-58
2023/10/14 06:30:19;;;;;;;8.15;3.58;;;;;;;;;;2075088;28;20038;-57
2023/10/14 06:31:21;;;;;;;6.80;3.30;;;;;;;;;;2074953;28;20049;-57
2023/10/14 06:32:22;;;;;;;6.45;3.40;;;;;;;;;;2074782;28;20037;-59
2023/10/14 06:33:26;;;;;;;8.65;3.80;;;;;;;;;;2074529;28;20528;-57
2023/10/14 06:34:27;;;;;;;6.38;3.13;;;;;;;;;;2074242;28;20077;-58
2023/10/14 06:35:28;;;;;;;5.80;3.75;;;;;;;;;;2074209;28;20046;-59
2023/10/14 06:36:29;;;;;;;9.70;3.70;;;;;;;;;;2074423;28;20041;-59
2023/10/14 06:37:31;;;;;;;12.25;4.00;;;;;;;;;;2074806;28;20045;-57
2023/10/14 06:38:33;;;;;;;5.60;3.10;;;;;;;;;;2074744;28;20046;-56
2023/10/14 06:39:41;;;;;;;6.28;3.15;;;;;;;;;;2074863;28;20041;-57
2023/10/14 06:40:42;;;;;;;8.88;3.90;;;;;;;;;;2074721;28;20394;-60
2023/10/14 06:41:45;;;;;;;7.60;3.25;;;;;;;;;;2074961;28;20033;-59
2023/10/14 06:42:50;;;;;;;10.82;4.45;;;;;;;;;;2074657;28;20033;-57
2023/10/14 06:43:55;;;;;;;4.20;2.83;;;;;;;;;;2074606;28;20426;-60
2023/10/14 06:44:57;;;;;;;11.25;3.92;;;;;;;;;;2074667;28;20041;-57
2023/10/14 06:45:58;;;;;;;7.40;3.88;;;;;;;;;;2074309;28;20049;-56
2023/10/14 06:46:59;;;;;;;5.90;2.97;;;;;;;;;;2074398;28;20390;-57
2023/10/14 06:48:03;;;;;;;9.13;3.60;;;;;;;;;;2074481;28;20037;-55